Time;durP1;ratioP1;P1;durP2;ratioP2;P2;SDS_P1;SDS_P2;PMS_P1;PMS_P2;Temp;Humidity;BMP_temperature;BMP_pressure;BME280_temperature;BME280_humidity;BME280_pressure;Samples;Min_cycle;Max_cycle;Signal;HPM_P1;HPM_P2
2023/03/18 00:01:24;;;;;;;15.93;10.20;;;;;;;;;;5072868;28;20467;-69
2023/03/18 00:03:51;;;;;;;17.40;10.67;;;;;;;;;;5072730;28;20462;-69
2023/03/18 00:06:19;;;;;;;15.10;9.80;;;;;;;;;;5072157;28;20446;-69
2023/03/18 00:08:47;;;;;;;14.70;9.60;;;;;;;;;;5073151;28;20941;-69
2023/03/18 00:11:17;;;;;;;15.70;9.23;;;;;;;;;;5072918;28;20570;-69
2023/03/18 00:13:46;;;;;;;13.40;10.00;;;;;;;;;;5072863;28;20840;-71
2023/03/18 00:16:14;;;;;;;15.90;9.73;;;;;;;;;;5072683;28;20540;-69
2023/03/18 00:18:41;;;;;;;15.57;10.37;;;;;;;;;;5072831;28;20455;-70
2023/03/18 00:21:09;;;;;;;10.43;7.70;;;;;;;;;;5072687;28;21007;-70
2023/03/18 00:23:37;;;;;;;20.87;11.17;;;;;;;;;;5072752;28;21000;-69
2023/03/18 00:26:05;;;;;;;16.03;9.97;;;;;;;;;;5072673;28;20454;-69
2023/03/18 00:28:33;;;;;;;14.53;9.90;;;;;;;;;;5072659;28;20542;-69
2023/03/18 00:31:07;;;;;;;14.43;9.33;;;;;;;;;;5072384;28;20483;-70
2023/03/18 00:33:34;;;;;;;12.13;9.63;;;;;;;;;;5072595;28;20456;-69
2023/03/18 00:36:01;;;;;;;13.20;8.60;;;;;;;;;;5072574;28;20519;-69
2023/03/18 00:38:29;;;;;;;18.13;9.10;;;;;;;;;;5072692;28;20452;-69
2023/03/18 00:41:09;;;;;;;19.53;10.53;;;;;;;;;;5072498;28;20476;-69
2023/03/18 00:43:44;;;;;;;16.07;10.50;;;;;;;;;;5072487;28;20494;-70
2023/03/18 00:46:13;;;;;;;15.33;9.23;;;;;;;;;;5072587;28;20451;-69
2023/03/18 00:48:40;;;;;;;13.20;9.93;;;;;;;;;;5072645;28;20455;-69
2023/03/18 00:51:09;;;;;;;15.00;9.87;;;;;;;;;;5072442;28;20479;-70
2023/03/18 00:53:37;;;;;;;13.90;9.30;;;;;;;;;;5072435;28;20554;-70
2023/03/18 00:56:05;;;;;;;17.33;9.33;;;;;;;;;;5072349;28;20999;-70
2023/03/18 00:58:32;;;;;;;13.17;9.47;;;;;;;;;;5072544;28;20448;-69
2023/03/18 01:00:59;;;;;;;10.70;8.77;;;;;;;;;;5072425;28;20476;-69
2023/03/18 01:03:27;;;;;;;14.77;9.50;;;;;;;;;;5072416;28;20462;-70
2023/03/18 01:05:55;;;;;;;21.03;9.83;;;;;;;;;;5072153;28;21036;-69
2023/03/18 01:08:22;;;;;;;17.07;9.70;;;;;;;;;;5072545;28;20462;-69
2023/03/18 01:10:49;;;;;;;10.60;8.13;;;;;;;;;;5075879;28;20471;-69
2023/03/18 01:13:16;;;;;;;15.77;8.60;;;;;;;;;;5076110;28;20451;-69
2023/03/18 01:15:44;;;;;;;14.10;9.80;;;;;;;;;;5075839;28;20447;-69
2023/03/18 01:18:11;;;;;;;18.60;11.37;;;;;;;;;;5075992;28;20522;-69
2023/03/18 01:20:40;;;;;;;15.03;9.23;;;;;;;;;;5075880;28;20472;-69
2023/03/18 01:23:07;;;;;;;16.60;9.90;;;;;;;;;;5075728;28;20474;-70
2023/03/18 01:25:35;;;;;;;14.83;8.60;;;;;;;;;;5075777;28;20862;-70
2023/03/18 01:28:02;;;;;;;17.33;9.20;;;;;;;;;;5075851;28;20448;-69
2023/03/18 01:30:30;;;;;;;11.83;9.07;;;;;;;;;;5075630;28;20505;-69
2023/03/18 01:32:57;;;;;;;13.60;8.80;;;;;;;;;;5075785;28;20549;-69
2023/03/18 01:35:25;;;;;;;13.60;9.70;;;;;;;;;;5075561;28;20447;-69
2023/03/18 01:37:54;;;;;;;14.87;9.03;;;;;;;;;;5075786;28;20509;-70
2023/03/18 01:40:21;;;;;;;12.77;9.60;;;;;;;;;;5075564;28;20472;-70
2023/03/18 01:42:49;;;;;;;11.67;9.07;;;;;;;;;;5075686;28;20459;-69
2023/03/18 01:45:18;;;;;;;13.33;9.70;;;;;;;;;;5075307;28;20471;-69
2023/03/18 01:47:46;;;;;;;14.20;9.30;;;;;;;;;;5075656;28;20461;-69
2023/03/18 01:50:14;;;;;;;18.73;8.97;;;;;;;;;;5075305;28;20455;-70
2023/03/18 01:52:42;;;;;;;14.70;9.80;;;;;;;;;;5075421;28;21031;-70
2023/03/18 01:55:12;;;;;;;15.77;9.67;;;;;;;;;;5075100;28;20448;-70
2023/03/18 01:57:40;;;;;;;13.47;9.60;;;;;;;;;;5075359;28;21049;-69
2023/03/18 02:00:09;;;;;;;15.70;11.07;;;;;;;;;;5074998;28;20499;-69
2023/03/18 02:02:37;;;;;;;13.43;9.23;;;;;;;;;;5075304;28;20450;-70
2023/03/18 02:05:05;;;;;;;20.13;11.13;;;;;;;;;;5074572;28;20824;-69
2023/03/18 02:07:33;;;;;;;25.13;11.40;;;;;;;;;;5075131;28;20448;-69
2023/03/18 02:10:03;;;;;;;18.57;10.20;;;;;;;;;;5075066;28;20439;-70
2023/03/18 02:12:33;;;;;;;20.90;10.10;;;;;;;;;;5074982;28;20952;-69
2023/03/18 02:15:01;;;;;;;20.57;10.37;;;;;;;;;;5075151;28;20451;-70
2023/03/18 02:17:30;;;;;;;16.57;11.87;;;;;;;;;;5074957;28;20484;-70
2023/03/18 02:20:02;;;;;;;24.50;12.20;;;;;;;;;;5074830;28;20456;-70
2023/03/18 02:22:32;;;;;;;27.10;12.47;;;;;;;;;;5074758;28;20466;-69
2023/03/18 02:25:04;;;;;;;25.43;12.47;;;;;;;;;;5074773;28;20534;-69
2023/03/18 02:27:34;;;;;;;18.13;11.90;;;;;;;;;;5075054;28;20447;-69
2023/03/18 02:30:03;;;;;;;16.00;11.90;;;;;;;;;;5074399;28;20452;-70
2023/03/18 02:32:31;;;;;;;16.30;9.20;;;;;;;;;;5074772;28;20448;-69
2023/03/18 02:35:00;;;;;;;21.20;9.80;;;;;;;;;;5074367;28;20459;-69
2023/03/18 02:37:27;;;;;;;14.37;10.50;;;;;;;;;;5074594;28;20484;-69
2023/03/18 02:39:54;;;;;;;14.97;9.60;;;;;;;;;;5074728;28;20810;-69
2023/03/18 02:42:28;;;;;;;19.03;10.57;;;;;;;;;;5074204;28;20471;-70
2023/03/18 02:44:56;;;;;;;18.03;11.30;;;;;;;;;;5074357;28;20452;-69
2023/03/18 02:47:26;;;;;;;14.63;9.87;;;;;;;;;;5074225;28;20447;-69
2023/03/18 02:49:54;;;;;;;17.53;9.93;;;;;;;;;;5074681;28;20961;-69
2023/03/18 02:52:21;;;;;;;16.83;8.80;;;;;;;;;;5074236;28;20468;-69
2023/03/18 02:54:48;;;;;;;12.53;9.70;;;;;;;;;;5074069;28;20447;-69
2023/03/18 02:57:15;;;;;;;17.50;9.63;;;;;;;;;;5073967;28;20847;-69
2023/03/18 02:59:42;;;;;;;17.07;10.27;;;;;;;;;;5074475;28;20855;-69
2023/03/18 03:02:10;;;;;;;13.53;9.53;;;;;;;;;;5073887;28;20833;-69
2023/03/18 03:04:38;;;;;;;23.13;8.97;;;;;;;;;;5074089;28;20459;-69
2023/03/18 03:07:06;;;;;;;16.10;9.70;;;;;;;;;;5073427;28;20452;-69
2023/03/18 03:09:33;;;;;;;13.47;9.30;;;;;;;;;;5073888;28;20452;-70
2023/03/18 03:12:00;;;;;;;14.47;9.67;;;;;;;;;;5073802;28;20472;-69
2023/03/18 03:14:27;;;;;;;14.80;9.50;;;;;;;;;;5073698;28;20450;-69
2023/03/18 03:16:55;;;;;;;15.77;9.27;;;;;;;;;;5073840;28;20490;-69
2023/03/18 03:19:23;;;;;;;12.80;8.63;;;;;;;;;;5073565;28;20448;-69
2023/03/18 03:21:51;;;;;;;12.10;8.63;;;;;;;;;;5073553;28;20542;-69
2023/03/18 03:24:18;;;;;;;15.43;11.10;;;;;;;;;;5073328;28;20458;-70
2023/03/18 03:26:45;;;;;;;16.93;9.93;;;;;;;;;;5073649;28;20941;-69
2023/03/18 03:29:13;;;;;;;16.73;12.20;;;;;;;;;;5073588;28;20452;-69
2023/03/18 03:31:40;;;;;;;17.90;9.00;;;;;;;;;;5073006;28;20523;-69
2023/03/18 03:34:07;;;;;;;15.20;8.77;;;;;;;;;;5073300;28;20474;-70
2023/03/18 03:36:36;;;;;;;11.67;8.40;;;;;;;;;;5073225;28;20945;-69
2023/03/18 03:39:03;;;;;;;15.10;9.23;;;;;;;;;;5073401;28;20450;-70
2023/03/18 03:41:30;;;;;;;13.67;9.53;;;;;;;;;;5073318;28;20562;-69
2023/03/18 03:43:57;;;;;;;14.27;9.20;;;;;;;;;;5073191;28;20458;-69
2023/03/18 03:46:24;;;;;;;21.73;10.50;;;;;;;;;;5073150;28;20554;-69
2023/03/18 03:48:51;;;;;;;18.93;8.30;;;;;;;;;;5073181;28;20447;-70
2023/03/18 03:51:18;;;;;;;12.87;9.00;;;;;;;;;;5073078;28;20880;-69
2023/03/18 03:53:47;;;;;;;15.07;8.50;;;;;;;;;;5072953;28;20829;-70
2023/03/18 03:56:14;;;;;;;16.00;9.97;;;;;;;;;;5073037;28;20496;-69
2023/03/18 03:58:41;;;;;;;16.70;10.30;;;;;;;;;;5073046;28;20933;-69
2023/03/18 04:01:08;;;;;;;14.47;8.87;;;;;;;;;;5072952;28;20495;-69
2023/03/18 04:03:35;;;;;;;15.53;10.40;;;;;;;;;;5072802;28;20460;-69
2023/03/18 04:06:03;;;;;;;18.87;10.57;;;;;;;;;;5072687;28;20459;-70
2023/03/18 04:08:30;;;;;;;20.67;11.07;;;;;;;;;;5073026;28;20546;-69
2023/03/18 04:10:59;;;;;;;19.53;10.70;;;;;;;;;;5072877;28;20980;-69
2023/03/18 04:13:26;;;;;;;13.63;10.53;;;;;;;;;;5072949;28;20925;-69
2023/03/18 04:15:53;;;;;;;19.23;11.87;;;;;;;;;;5072825;28;20448;-69
2023/03/18 04:18:20;;;;;;;15.27;10.00;;;;;;;;;;5072760;28;20491;-69
2023/03/18 04:20:47;;;;;;;16.90;10.70;;;;;;;;;;5072700;28;20479;-70
2023/03/18 04:23:14;;;;;;;22.27;10.73;;;;;;;;;;5072788;28;20460;-69
2023/03/18 04:25:41;;;;;;;18.73;11.50;;;;;;;;;;5072686;28;20491;-69
2023/03/18 04:28:10;;;;;;;16.77;12.27;;;;;;;;;;5072676;28;20455;-69
2023/03/18 04:30:37;;;;;;;20.83;12.70;;;;;;;;;;5072654;28;20475;-70
2023/03/18 04:33:04;;;;;;;14.40;10.87;;;;;;;;;;5072665;28;20513;-70
2023/03/18 04:35:31;;;;;;;25.17;13.37;;;;;;;;;;5072404;28;20455;-69
2023/03/18 04:37:58;;;;;;;17.33;11.33;;;;;;;;;;5072586;28;20487;-69
2023/03/18 04:40:25;;;;;;;15.70;10.50;;;;;;;;;;5072473;28;20467;-69
2023/03/18 04:42:52;;;;;;;17.70;11.77;;;;;;;;;;5072920;28;20463;-69
2023/03/18 04:45:21;;;;;;;15.47;10.60;;;;;;;;;;5075092;28;20797;-70
2023/03/18 04:47:48;;;;;;;18.70;11.70;;;;;;;;;;5076693;28;20447;-69
2023/03/18 04:50:16;;;;;;;18.77;12.10;;;;;;;;;;5076465;28;20460;-69
2023/03/18 04:52:44;;;;;;;18.30;12.23;;;;;;;;;;5076881;28;20485;-69
2023/03/18 04:55:12;;;;;;;19.37;11.20;;;;;;;;;;5076334;28;20444;-69
2023/03/18 04:57:41;;;;;;;13.10;10.40;;;;;;;;;;5076484;28;20490;-69
2023/03/18 05:00:10;;;;;;;15.60;9.30;;;;;;;;;;5076381;28;20944;-70
2023/03/18 05:02:38;;;;;;;12.80;10.00;;;;;;;;;;5076366;28;20456;-69
2023/03/18 05:05:06;;;;;;;18.70;10.43;;;;;;;;;;5075427;28;20451;-70
2023/03/18 05:07:33;;;;;;;16.73;8.60;;;;;;;;;;5076490;28;20963;-69
2023/03/18 05:10:00;;;;;;;17.30;10.27;;;;;;;;;;5076023;28;20455;-69
2023/03/18 05:12:27;;;;;;;14.07;9.90;;;;;;;;;;5075949;28;20452;-70
2023/03/18 05:14:54;;;;;;;16.40;10.97;;;;;;;;;;5075858;28;20963;-69
2023/03/18 05:17:21;;;;;;;26.27;17.57;;;;;;;;;;5075807;28;20491;-69
2023/03/18 05:19:50;;;;;;;23.80;15.37;;;;;;;;;;5076056;28;20459;-69
2023/03/18 05:22:18;;;;;;;19.07;12.20;;;;;;;;;;5075797;28;20471;-69
2023/03/18 05:24:46;;;;;;;18.03;12.30;;;;;;;;;;5075665;28;20822;-69
2023/03/18 05:27:13;;;;;;;25.50;15.40;;;;;;;;;;5075767;28;20817;-69
2023/03/18 05:29:40;;;;;;;36.00;17.60;;;;;;;;;;5075850;28;20463;-69
2023/03/18 05:32:08;;;;;;;77.03;34.47;;;;;;;;;;5074467;28;20917;-69
2023/03/18 05:34:36;;;;;;;43.90;18.47;;;;;;;;;;5074455;28;20793;-69
2023/03/18 05:37:04;;;;;;;16.33;10.57;;;;;;;;;;5074545;28;20455;-70
2023/03/18 05:39:32;;;;;;;14.93;9.97;;;;;;;;;;5074566;28;20451;-69
2023/03/18 05:41:59;;;;;;;14.13;9.83;;;;;;;;;;5074464;28;20490;-70
2023/03/18 05:44:27;;;;;;;16.97;10.87;;;;;;;;;;5074048;28;20454;-69
2023/03/18 05:46:54;;;;;;;16.03;9.80;;;;;;;;;;5074335;28;20458;-69
2023/03/18 05:49:22;;;;;;;17.90;9.53;;;;;;;;;;5074467;28;20448;-69
2023/03/18 05:51:49;;;;;;;36.87;15.57;;;;;;;;;;5072702;28;20562;-69
2023/03/18 05:54:18;;;;;;;15.90;10.87;;;;;;;;;;5073682;28;20495;-69
2023/03/18 05:56:45;;;;;;;21.10;11.90;;;;;;;;;;5073647;28;20463;-69
2023/03/18 05:59:12;;;;;;;16.30;11.67;;;;;;;;;;5073951;28;20487;-69
2023/03/18 06:01:40;;;;;;;14.87;10.53;;;;;;;;;;5073961;28;20495;-69
2023/03/18 06:04:07;;;;;;;20.73;12.33;;;;;;;;;;5073583;28;20547;-69
2023/03/18 06:06:36;;;;;;;21.33;13.30;;;;;;;;;;5073248;28;20869;-69
2023/03/18 06:09:03;;;;;;;22.30;16.07;;;;;;;;;;5073837;28;20806;-70
2023/03/18 06:11:31;;;;;;;16.40;10.80;;;;;;;;;;5073724;28;20475;-69
2023/03/18 06:13:59;;;;;;;17.40;11.60;;;;;;;;;;5073438;28;20462;-69
2023/03/18 06:16:27;;;;;;;15.23;11.07;;;;;;;;;;5073639;28;20972;-69
2023/03/18 06:18:54;;;;;;;16.97;10.03;;;;;;;;;;5073565;28;20526;-69
2023/03/18 06:21:21;;;;;;;15.90;10.57;;;;;;;;;;5073527;28;20495;-69
2023/03/18 06:23:48;;;;;;;13.53;9.70;;;;;;;;;;5073560;28;20481;-69
2023/03/18 06:26:15;;;;;;;18.00;11.40;;;;;;;;;;5073519;28;20824;-69
2023/03/18 06:28:44;;;;;;;14.93;10.37;;;;;;;;;;5073663;28;20941;-69
2023/03/18 06:32:39;;;;;;;18.47;12.23;;;;;;;;;;5110971;27;20619;-69
2023/03/18 06:35:06;;;;;;;14.17;10.80;;;;;;;;;;5110285;28;20866;-70
2023/03/18 06:37:33;;;;;;;21.07;12.63;;;;;;;;;;5109892;28;20810;-69
2023/03/18 06:40:00;;;;;;;19.23;12.13;;;;;;;;;;5101859;28;20508;-70
2023/03/18 06:42:28;;;;;;;17.30;11.40;;;;;;;;;;5087883;28;20447;-70
2023/03/18 06:44:55;;;;;;;23.07;14.83;;;;;;;;;;5088661;28;20458;-70
2023/03/18 06:47:22;;;;;;;17.13;11.63;;;;;;;;;;5088614;28;20451;-70
2023/03/18 06:49:51;;;;;;;26.40;19.13;;;;;;;;;;5088437;28;20445;-73
2023/03/18 06:52:18;;;;;;;27.67;18.20;;;;;;;;;;5087840;28;21022;-71
2023/03/18 06:54:45;;;;;;;18.90;14.63;;;;;;;;;;5088241;28;20475;-71
2023/03/18 06:57:13;;;;;;;18.17;12.87;;;;;;;;;;5088512;28;20815;-71
2023/03/18 06:59:40;;;;;;;11.60;10.40;;;;;;;;;;5088628;28;20931;-71
2023/03/18 07:02:08;;;;;;;15.90;10.40;;;;;;;;;;5088314;28;20501;-71
2023/03/18 07:04:35;;;;;;;15.77;10.70;;;;;;;;;;5087784;28;20450;-71
2023/03/18 07:07:04;;;;;;;13.13;10.13;;;;;;;;;;5088192;28;20454;-72
2023/03/18 07:09:32;;;;;;;15.13;10.73;;;;;;;;;;5088299;28;20454;-70
2023/03/18 07:12:00;;;;;;;14.00;10.23;;;;;;;;;;5087929;28;20940;-71
2023/03/18 07:14:28;;;;;;;28.50;17.23;;;;;;;;;;5088047;28;20447;-71
2023/03/18 07:16:55;;;;;;;17.67;11.87;;;;;;;;;;5088268;28;20986;-71
2023/03/18 07:19:22;;;;;;;14.00;10.33;;;;;;;;;;5087779;28;20942;-71
2023/03/18 07:21:49;;;;;;;13.00;10.40;;;;;;;;;;5088271;28;20469;-71
2023/03/18 07:24:19;;;;;;;11.67;10.47;;;;;;;;;;5088371;28;20455;-71
2023/03/18 07:26:49;;;;;;;18.37;9.83;;;;;;;;;;5089451;28;20451;-71
2023/03/18 07:29:16;;;;;;;10.37;7.40;;;;;;;;;;5089182;28;20447;-72
2023/03/18 07:31:43;;;;;;;12.50;8.77;;;;;;;;;;5089084;28;20486;-71
2023/03/18 07:34:10;;;;;;;9.63;8.40;;;;;;;;;;5088741;28;20458;-71
2023/03/18 07:36:37;;;;;;;8.63;7.47;;;;;;;;;;5089187;28;20446;-71
2023/03/18 07:39:04;;;;;;;15.33;8.30;;;;;;;;;;5089221;28;20442;-72
2023/03/18 07:41:33;;;;;;;8.80;7.60;;;;;;;;;;5089240;28;20466;-71
2023/03/18 07:44:00;;;;;;;8.37;6.70;;;;;;;;;;5075293;28;20963;-72
2023/03/18 07:46:27;;;;;;;5.77;5.17;;;;;;;;;;5075745;28;20956;-72
2023/03/18 07:48:54;;;;;;;9.43;5.17;;;;;;;;;;5075539;28;20458;-71
2023/03/18 07:51:21;;;;;;;6.90;5.17;;;;;;;;;;5075430;28;20498;-71
2023/03/18 07:53:50;;;;;;;12.90;10.70;;;;;;;;;;5075421;28;20466;-71
2023/03/18 07:56:17;;;;;;;8.20;6.50;;;;;;;;;;5075358;28;20473;-71
2023/03/18 07:58:46;;;;;;;5.70;5.20;;;;;;;;;;5075478;28;20452;-71
2023/03/18 08:01:14;;;;;;;10.40;6.20;;;;;;;;;;5075138;28;20474;-72
2023/03/18 08:03:42;;;;;;;8.03;5.93;;;;;;;;;;5075049;28;20560;-72
2023/03/18 08:06:10;;;;;;;7.17;4.67;;;;;;;;;;5075034;28;20495;-72
2023/03/18 08:08:37;;;;;;;9.00;6.33;;;;;;;;;;5074236;28;20975;-71
2023/03/18 08:11:04;;;;;;;14.87;6.90;;;;;;;;;;5071832;28;20487;-72
2023/03/18 08:13:31;;;;;;;7.00;5.37;;;;;;;;;;5073913;28;20818;-71
2023/03/18 08:16:00;;;;;;;8.57;6.03;;;;;;;;;;5074399;28;20823;-72
2023/03/18 08:18:27;;;;;;;7.87;5.67;;;;;;;;;;5074215;28;20870;-72
2023/03/18 08:20:54;;;;;;;9.53;6.87;;;;;;;;;;5074241;28;20475;-72
2023/03/18 08:23:21;;;;;;;12.50;8.37;;;;;;;;;;5074216;28;20456;-71
2023/03/18 08:25:49;;;;;;;9.70;6.90;;;;;;;;;;5074609;28;20932;-71
2023/03/18 08:28:16;;;;;;;10.87;7.10;;;;;;;;;;5074755;28;20451;-71
2023/03/18 08:30:45;;;;;;;9.33;6.53;;;;;;;;;;5074614;28;20488;-71
2023/03/18 08:33:14;;;;;;;8.07;5.83;;;;;;;;;;5074654;28;20451;-72
2023/03/18 08:35:42;;;;;;;12.20;6.90;;;;;;;;;;5074580;28;20491;-72
2023/03/18 08:38:09;;;;;;;8.63;5.87;;;;;;;;;;5074626;28;20448;-72
2023/03/18 08:40:36;;;;;;;5.57;4.97;;;;;;;;;;5074695;28;20471;-72
2023/03/18 08:43:03;;;;;;;6.43;5.47;;;;;;;;;;5074577;28;20440;-72
2023/03/18 08:45:30;;;;;;;6.97;4.80;;;;;;;;;;5074318;28;20955;-72
2023/03/18 08:47:58;;;;;;;5.83;4.53;;;;;;;;;;5074594;28;20941;-72
2023/03/18 08:50:28;;;;;;;5.03;4.30;;;;;;;;;;5074380;28;20478;-72
2023/03/18 08:52:57;;;;;;;5.30;4.80;;;;;;;;;;5074393;28;20533;-72
2023/03/18 08:55:25;;;;;;;4.67;4.23;;;;;;;;;;5073254;28;20491;-72
2023/03/18 08:57:52;;;;;;;9.30;4.67;;;;;;;;;;5074288;28;20447;-72
2023/03/18 09:00:20;;;;;;;6.80;4.87;;;;;;;;;;5074289;28;20514;-72
2023/03/18 09:02:47;;;;;;;8.50;4.43;;;;;;;;;;5074246;28;20448;-72
2023/03/18 09:05:14;;;;;;;9.13;4.20;;;;;;;;;;5073465;28;20889;-72
2023/03/18 09:07:44;;;;;;;4.73;4.10;;;;;;;;;;5074149;28;20455;-72
2023/03/18 09:10:13;;;;;;;7.57;3.90;;;;;;;;;;5074016;28;20941;-72
2023/03/18 09:12:41;;;;;;;7.13;4.50;;;;;;;;;;5074010;28;20517;-72
2023/03/18 09:15:09;;;;;;;9.63;4.93;;;;;;;;;;5073697;28;20538;-73
2023/03/18 09:17:37;;;;;;;5.30;4.80;;;;;;;;;;5074003;28;20452;-72
2023/03/18 09:20:04;;;;;;;6.93;4.47;;;;;;;;;;5073862;28;20448;-72
2023/03/18 09:22:32;;;;;;;7.07;4.77;;;;;;;;;;5073794;28;20456;-72
2023/03/18 09:25:01;;;;;;;6.90;4.57;;;;;;;;;;5073657;28;20451;-72
2023/03/18 09:27:28;;;;;;;5.83;4.20;;;;;;;;;;5073821;28;20452;-72
2023/03/18 09:29:55;;;;;;;6.43;4.87;;;;;;;;;;5073692;28;20941;-72
2023/03/18 09:32:22;;;;;;;5.33;4.57;;;;;;;;;;5073259;28;20527;-72
2023/03/18 09:34:50;;;;;;;11.97;5.20;;;;;;;;;;5073565;28;20454;-72
2023/03/18 09:37:17;;;;;;;7.17;6.30;;;;;;;;;;5073418;28;21066;-72
2023/03/18 09:39:44;;;;;;;10.93;5.60;;;;;;;;;;5073392;28;20463;-72
2023/03/18 09:42:19;;;;;;;11.10;5.47;;;;;;;;;;5073353;28;20507;-72
2023/03/18 09:44:50;;;;;;;7.03;5.30;;;;;;;;;;5073255;28;20463;-72
2023/03/18 09:47:24;;;;;;;7.77;6.10;;;;;;;;;;5073387;28;20447;-72
2023/03/18 09:50:01;;;;;;;6.27;5.30;;;;;;;;;;5073268;28;20509;-72
2023/03/18 09:52:30;;;;;;;6.47;5.80;;;;;;;;;;5073306;28;20968;-72
2023/03/18 09:55:01;;;;;;;8.97;6.00;;;;;;;;;;5073335;28;20956;-72
2023/03/18 09:57:33;;;;;;;7.63;6.17;;;;;;;;;;5073308;28;20982;-72
2023/03/18 10:00:04;;;;;;;9.13;5.80;;;;;;;;;;5073103;28;20443;-72
2023/03/18 10:02:34;;;;;;;9.20;5.73;;;;;;;;;;5073129;28;20456;-72
2023/03/18 10:05:03;;;;;;;6.17;5.37;;;;;;;;;;5072226;28;20967;-72
2023/03/18 10:07:33;;;;;;;6.20;5.40;;;;;;;;;;5073167;28;20444;-72
2023/03/18 10:10:03;;;;;;;6.70;5.30;;;;;;;;;;5073169;28;20443;-72
2023/03/18 10:12:34;;;;;;;8.63;5.70;;;;;;;;;;5072862;28;20574;-72
2023/03/18 10:15:05;;;;;;;10.80;5.57;;;;;;;;;;5072891;28;21011;-72
2023/03/18 10:17:35;;;;;;;6.47;5.10;;;;;;;;;;5072977;28;20460;-72
2023/03/18 10:20:03;;;;;;;9.03;6.90;;;;;;;;;;5072867;28;20459;-72
2023/03/18 10:22:36;;;;;;;13.90;6.80;;;;;;;;;;5073178;28;20488;-72
2023/03/18 10:25:07;;;;;;;12.83;6.50;;;;;;;;;;5072617;28;20547;-73
2023/03/18 10:27:42;;;;;;;7.30;5.77;;;;;;;;;;5073015;28;20522;-72
2023/03/18 10:30:17;;;;;;;7.20;6.03;;;;;;;;;;5072847;28;20952;-72
2023/03/18 10:32:47;;;;;;;8.07;6.00;;;;;;;;;;5072913;28;20482;-72
2023/03/18 10:35:18;;;;;;;11.00;6.60;;;;;;;;;;5072566;28;20455;-72
2023/03/18 10:37:50;;;;;;;10.17;6.70;;;;;;;;;;5073007;28;20458;-72
2023/03/18 10:40:18;;;;;;;8.07;6.50;;;;;;;;;;5072741;28;20458;-72
2023/03/18 10:42:49;;;;;;;7.53;5.87;;;;;;;;;;5072764;28;20500;-72
2023/03/18 10:45:20;;;;;;;16.03;6.90;;;;;;;;;;5072708;28;20452;-72
2023/03/18 10:47:51;;;;;;;7.90;6.03;;;;;;;;;;5072633;28;20443;-73
2023/03/18 10:50:21;;;;;;;8.67;7.37;;;;;;;;;;5072723;28;20694;-72
2023/03/18 10:52:50;;;;;;;11.90;7.63;;;;;;;;;;5072683;28;20490;-72
2023/03/18 10:55:18;;;;;;;12.90;7.40;;;;;;;;;;5072397;28;20448;-72
2023/03/18 10:57:46;;;;;;;7.97;6.93;;;;;;;;;;5072585;28;20456;-72
2023/03/18 11:00:18;;;;;;;8.90;6.50;;;;;;;;;;5072458;28;20451;-73
2023/03/18 11:02:45;;;;;;;9.27;7.63;;;;;;;;;;5072714;28;20452;-73
2023/03/18 11:05:21;;;;;;;12.23;6.70;;;;;;;;;;5071913;28;20538;-72
2023/03/18 11:07:59;;;;;;;16.33;7.47;;;;;;;;;;5073007;28;20447;-72
2023/03/18 11:10:27;;;;;;;8.10;6.93;;;;;;;;;;5072390;28;20524;-72
2023/03/18 11:12:59;;;;;;;9.40;7.07;;;;;;;;;;5072356;28;20479;-73
2023/03/18 11:15:26;;;;;;;11.43;8.27;;;;;;;;;;5072317;28;20460;-72
2023/03/18 11:17:53;;;;;;;9.10;6.70;;;;;;;;;;5073727;28;20832;-72
2023/03/18 11:20:23;;;;;;;11.97;6.50;;;;;;;;;;5075967;28;20471;-73
2023/03/18 11:22:52;;;;;;;8.70;7.03;;;;;;;;;;5076186;28;20451;-72
2023/03/18 11:25:21;;;;;;;8.13;6.70;;;;;;;;;;5075971;28;20443;-73
2023/03/18 11:27:50;;;;;;;14.17;7.53;;;;;;;;;;5076061;28;20453;-73
2023/03/18 11:30:20;;;;;;;7.77;6.80;;;;;;;;;;5075839;28;20912;-72
2023/03/18 11:32:51;;;;;;;8.07;6.20;;;;;;;;;;5076023;28;20929;-72
2023/03/18 11:35:21;;;;;;;11.60;7.07;;;;;;;;;;5075786;28;20475;-73
2023/03/18 11:37:48;;;;;;;11.00;6.40;;;;;;;;;;5075819;28;20908;-73
2023/03/18 11:40:21;;;;;;;12.37;8.07;;;;;;;;;;5075662;28;20553;-73
2023/03/18 11:42:48;;;;;;;9.97;7.10;;;;;;;;;;5075794;28;20440;-73
2023/03/18 11:45:28;;;;;;;12.90;6.17;;;;;;;;;;5075389;28;20443;-72
2023/03/18 11:47:56;;;;;;;7.43;6.03;;;;;;;;;;5075747;28;20451;-72
2023/03/18 11:50:24;;;;;;;7.20;6.10;;;;;;;;;;5075459;28;20503;-73
2023/03/18 11:52:56;;;;;;;10.13;6.40;;;;;;;;;;5075601;28;20536;-73
2023/03/18 11:55:26;;;;;;;7.53;5.40;;;;;;;;;;5075383;28;20451;-72
2023/03/18 11:58:09;;;;;;;8.33;5.80;;;;;;;;;;5075509;28;20822;-72
2023/03/18 12:00:38;;;;;;;9.17;5.30;;;;;;;;;;5074233;28;20482;-73
2023/03/18 12:03:38;;;;;;;10.97;7.57;;;;;;;;;;5075303;28;20443;-73
2023/03/18 12:06:08;;;;;;;16.33;6.77;;;;;;;;;;5074773;28;20958;-73
2023/03/18 12:08:43;;;;;;;10.30;6.00;;;;;;;;;;5075517;28;20456;-73
2023/03/18 12:11:12;;;;;;;7.33;5.80;;;;;;;;;;5075181;28;20570;-73
2023/03/18 12:13:47;;;;;;;8.60;6.57;;;;;;;;;;5075023;28;20491;-73
2023/03/18 12:16:20;;;;;;;9.67;6.00;;;;;;;;;;5075147;28;20504;-73
2023/03/18 12:18:57;;;;;;;13.30;6.83;;;;;;;;;;5075454;28;20883;-73
2023/03/18 12:21:41;;;;;;;7.03;5.10;;;;;;;;;;5074933;28;20845;-73
2023/03/18 12:24:15;;;;;;;13.60;6.13;;;;;;;;;;5075046;28;20990;-73
2023/03/18 12:26:46;;;;;;;7.10;5.17;;;;;;;;;;5075106;28;20451;-73
2023/03/18 12:29:31;;;;;;;6.50;5.10;;;;;;;;;;5074790;28;20460;-73
2023/03/18 12:32:05;;;;;;;7.70;5.30;;;;;;;;;;5074681;28;20488;-73
2023/03/18 12:34:43;;;;;;;7.20;5.50;;;;;;;;;;5074823;28;20447;-73
2023/03/18 12:37:16;;;;;;;10.20;5.63;;;;;;;;;;5074708;28;20450;-73
2023/03/18 12:39:52;;;;;;;8.80;6.63;;;;;;;;;;5074811;28;20830;-73
2023/03/18 12:42:27;;;;;;;5.70;4.60;;;;;;;;;;5074561;28;20467;-73
2023/03/18 12:44:59;;;;;;;11.03;5.10;;;;;;;;;;5074438;28;20486;-73
2023/03/18 12:47:30;;;;;;;12.63;5.40;;;;;;;;;;5074669;28;20452;-73
2023/03/18 12:50:00;;;;;;;6.10;4.43;;;;;;;;;;5074470;28;20506;-73
2023/03/18 12:52:30;;;;;;;9.27;4.53;;;;;;;;;;5074595;28;20447;-72
2023/03/18 12:55:00;;;;;;;8.60;4.10;;;;;;;;;;5074255;28;20933;-73
2023/03/18 12:57:31;;;;;;;7.90;4.00;;;;;;;;;;5074246;28;20452;-72
2023/03/18 13:00:00;;;;;;;9.80;3.90;;;;;;;;;;5074470;28;20791;-73
2023/03/18 13:02:35;;;;;;;8.70;4.57;;;;;;;;;;5074328;28;20468;-72
2023/03/18 13:05:04;;;;;;;5.00;3.43;;;;;;;;;;5073576;28;20447;-72
2023/03/18 13:07:38;;;;;;;8.10;3.00;;;;;;;;;;5074167;28;20459;-73
2023/03/18 13:10:09;;;;;;;5.43;3.60;;;;;;;;;;5074094;28;20452;-72
2023/03/18 13:12:37;;;;;;;10.73;3.80;;;;;;;;;;5074054;28;20887;-72
2023/03/18 13:15:07;;;;;;;7.40;4.20;;;;;;;;;;5073792;28;20443;-73
2023/03/18 13:17:38;;;;;;;9.00;4.30;;;;;;;;;;5074124;28;20451;-72
2023/03/18 13:20:12;;;;;;;6.20;3.50;;;;;;;;;;5073865;28;20826;-72
2023/03/18 13:22:54;;;;;;;14.27;3.90;;;;;;;;;;5073996;28;20451;-72
2023/03/18 13:25:26;;;;;;;4.53;3.40;;;;;;;;;;5073583;28;20456;-72
2023/03/18 13:28:06;;;;;;;5.20;3.33;;;;;;;;;;5073836;28;20452;-72
2023/03/18 13:30:36;;;;;;;9.40;3.67;;;;;;;;;;5073341;28;20479;-73
2023/03/18 13:33:21;;;;;;;9.53;3.57;;;;;;;;;;5073635;28;20486;-72
2023/03/18 13:36:09;;;;;;;8.63;3.27;;;;;;;;;;5073517;28;20451;-72
2023/03/18 13:38:42;;;;;;;6.00;3.30;;;;;;;;;;5073499;28;20443;-72
2023/03/18 13:41:18;;;;;;;6.60;3.20;;;;;;;;;;5072856;28;20472;-72
2023/03/18 13:43:48;;;;;;;5.60;2.60;;;;;;;;;;5073265;28;20444;-73
2023/03/18 13:46:19;;;;;;;4.60;2.70;;;;;;;;;;5073616;28;20908;-72
2023/03/18 13:48:47;;;;;;;4.57;2.77;;;;;;;;;;5073434;28;20481;-72
2023/03/18 13:51:42;;;;;;;3.47;2.43;;;;;;;;;;5073177;28;20468;-72
2023/03/18 13:54:17;;;;;;;10.43;3.20;;;;;;;;;;5072839;28;20527;-72
2023/03/18 13:56:49;;;;;;;6.83;2.87;;;;;;;;;;5073315;28;20470;-72
2023/03/18 13:59:31;;;;;;;8.10;3.07;;;;;;;;;;5073187;28;20458;-72
2023/03/18 14:02:00;;;;;;;7.93;2.80;;;;;;;;;;5072917;28;20467;-72
2023/03/18 14:04:31;;;;;;;7.13;2.90;;;;;;;;;;5073091;28;20443;-72
2023/03/18 14:07:13;;;;;;;6.83;2.90;;;;;;;;;;5072799;28;20906;-72
2023/03/18 14:09:54;;;;;;;7.20;2.73;;;;;;;;;;5073373;28;20442;-72
2023/03/18 14:12:36;;;;;;;4.37;3.60;;;;;;;;;;5072916;28;20470;-72
2023/03/18 14:15:04;;;;;;;7.43;2.83;;;;;;;;;;5072930;28;20933;-72
2023/03/18 14:17:50;;;;;;;5.53;2.50;;;;;;;;;;5072979;28;20550;-72
2023/03/18 14:20:25;;;;;;;5.93;3.30;;;;;;;;;;5072704;28;20963;-72
2023/03/18 14:22:55;;;;;;;8.27;2.60;;;;;;;;;;5072865;28;20451;-72
2023/03/18 14:25:41;;;;;;;5.60;2.40;;;;;;;;;;5072636;28;20439;-72
2023/03/18 14:28:19;;;;;;;9.93;4.50;;;;;;;;;;5072907;28;20475;-72
2023/03/18 14:30:47;;;;;;;7.47;4.40;;;;;;;;;;5072699;28;21049;-72
2023/03/18 14:33:48;;;;;;;9.20;4.70;;;;;;;;;;5072787;28;20499;-72
2023/03/18 14:36:15;;;;;;;6.13;3.80;;;;;;;;;;5072904;28;20443;-72
2023/03/18 14:38:47;;;;;;;8.50;4.93;;;;;;;;;;5072898;28;20875;-72
2023/03/18 14:41:15;;;;;;;8.80;4.43;;;;;;;;;;5072611;28;20472;-73
2023/03/18 14:43:46;;;;;;;8.17;4.90;;;;;;;;;;5072749;28;20823;-72
2023/03/18 14:46:17;;;;;;;11.77;5.00;;;;;;;;;;5072870;28;20969;-72